createdAt,value
2022-09-26T00:01:20.529Z,94876.91
2022-09-26T00:03:53.717Z,94872.69
2022-09-26T00:06:23.153Z,94879.53
2022-09-26T00:08:52.309Z,94877.94
2022-09-26T00:11:23.227Z,94872.69
2022-09-26T00:13:54.129Z,94868.97
2022-09-26T00:16:22.632Z,94874.44
2022-09-26T00:18:53.385Z,94875.72
2022-09-26T00:21:22.359Z,94869.38
2022-09-26T00:23:50.764Z,94877.13
2022-09-26T00:26:20.584Z,94870.75
2022-09-26T00:28:49.396Z,94870.22
2022-09-26T00:31:20.534Z,94859.19
2022-09-26T00:33:49.000Z,94864.97
2022-09-26T00:36:19.168Z,94860.22
2022-09-26T00:38:47.868Z,94859.13
2022-09-26T00:41:17.159Z,94849.13
2022-09-26T00:43:48.270Z,94849.63
2022-09-26T00:46:35.456Z,94844.84
2022-09-26T00:49:15.783Z,94841.06
2022-09-26T00:51:53.828Z,94843.13
2022-09-26T00:54:21.825Z,94837.13
2022-09-26T00:56:53.369Z,94845.06
2022-09-26T00:59:26.259Z,94844.41
2022-09-26T01:01:57.466Z,94841.91
2022-09-26T01:04:27.869Z,94835.69
2022-09-26T01:06:59.354Z,94836.63
2022-09-26T01:09:28.367Z,94824.59
2022-09-26T01:11:58.190Z,94824.25
2022-09-26T01:14:26.347Z,94824.88
2022-09-26T01:16:54.604Z,94827.56
2022-09-26T01:19:30.219Z,94825.03
2022-09-26T01:22:37.709Z,94828.19
2022-09-26T01:25:23.693Z,94830.81
2022-09-26T01:28:05.651Z,94827.69
2022-09-26T01:30:43.373Z,94823.06
2022-09-26T01:33:34.300Z,94822.59
2022-09-26T01:36:29.891Z,94822.59
2022-09-26T01:39:14.471Z,94818.38
2022-09-26T01:41:51.892Z,94814.72
2022-09-26T01:44:30.999Z,94815.28
2022-09-26T01:47:07.045Z,94814.03
2022-09-26T01:49:44.762Z,94814.31
2022-09-26T01:52:20.624Z,94812.75
2022-09-26T01:54:55.487Z,94810.91
2022-09-26T01:57:29.722Z,94814.75
2022-09-26T02:00:01.153Z,94814.28
2022-09-26T02:02:37.104Z,94800.94
2022-09-26T02:05:09.143Z,94802.34
2022-09-26T02:07:44.064Z,94806.94
2022-09-26T02:10:17.708Z,94800.66
2022-09-26T02:12:55.051Z,94796.75
2022-09-26T02:15:26.449Z,94792.00
2022-09-26T02:18:02.051Z,94787.25
2022-09-26T02:20:33.177Z,94786.44
2022-09-26T02:23:04.141Z,94785.66
2022-09-26T02:25:32.828Z,94776.75
2022-09-26T02:28:01.373Z,94787.25
2022-09-26T02:30:30.292Z,94787.25
2022-09-26T02:33:02.124Z,94779.88
2022-09-26T02:36:03.843Z,94778.03
2022-09-26T02:38:33.663Z,94778.84
2022-09-26T02:41:22.523Z,94771.47
2022-09-26T02:44:12.978Z,94778.28
2022-09-26T02:47:05.879Z,94772.50
2022-09-26T02:49:50.756Z,94770.94
2022-09-26T02:52:32.665Z,94765.38
2022-09-26T02:55:11.454Z,94759.84
2022-09-26T02:57:49.905Z,94757.78
2022-09-26T03:00:22.423Z,94748.88
2022-09-26T03:02:58.121Z,94755.22
2022-09-26T03:05:30.979Z,94749.50
2022-09-26T03:08:06.417Z,94755.03
2022-09-26T03:10:35.494Z,94754.06
2022-09-26T03:13:08.220Z,94756.44
2022-09-26T03:15:38.549Z,94757.25
2022-09-26T03:18:11.644Z,94754.88
2022-09-26T03:20:41.897Z,94745.34
2022-09-26T03:23:10.028Z,94745.03
2022-09-26T03:25:38.655Z,94743.66
2022-09-26T03:28:10.631Z,94749.44
2022-09-26T03:30:39.775Z,94746.22
2022-09-26T03:33:25.942Z,94745.09
2022-09-26T03:35:59.512Z,94744.63
2022-09-26T03:38:28.072Z,94746.22
2022-09-26T03:41:07.267Z,94747.78
2022-09-26T03:43:57.400Z,94738.59
2022-09-26T03:46:28.671Z,94735.75
2022-09-26T03:48:56.894Z,94736.28
2022-09-26T03:51:26.570Z,94737.38
2022-09-26T03:53:54.519Z,94732.19
2022-09-26T03:56:26.870Z,94725.94
2022-09-26T03:58:55.085Z,94728.00
2022-09-26T04:01:24.746Z,94727.50
2022-09-26T04:03:52.738Z,94730.13
2022-09-26T04:06:21.590Z,94719.66
2022-09-26T04:08:54.130Z,94716.00
2022-09-26T04:11:24.632Z,94712.34
2022-09-26T04:13:54.135Z,94708.69
2022-09-26T04:16:25.616Z,94714.41
2022-09-26T04:18:59.982Z,94707.59
2022-09-26T04:21:29.850Z,94702.84
2022-09-26T04:24:01.094Z,94702.31
2022-09-26T04:26:29.207Z,94711.19
2022-09-26T04:28:59.090Z,94706.22
2022-09-26T04:31:48.096Z,94703.84
2022-09-26T04:34:21.351Z,94702.25
2022-09-26T04:36:53.009Z,94697.03
2022-09-26T04:39:24.225Z,94705.91
2022-09-26T04:41:53.246Z,94705.91
2022-09-26T04:44:22.091Z,94695.94
2022-09-26T04:46:50.449Z,94698.31
2022-09-26T04:49:20.849Z,94704.34
2022-09-26T04:51:48.890Z,94704.94
2022-09-26T04:54:17.329Z,94706.50
2022-09-26T04:56:47.337Z,94710.16
2022-09-26T04:59:15.444Z,94706.50
2022-09-26T05:01:56.936Z,94698.09
2022-09-26T05:04:33.449Z,94691.28
2022-09-26T05:07:01.548Z,94691.78
2022-09-26T05:09:35.762Z,94688.63
2022-09-26T05:12:09.581Z,94684.34
2022-09-26T05:14:39.728Z,94692.44
2022-09-26T05:17:11.070Z,94683.56
2022-09-26T05:19:39.881Z,94689.56
2022-09-26T05:22:22.844Z,94686.41
2022-09-26T05:25:08.126Z,94683.78
2022-09-26T05:27:39.049Z,94687.44
2022-09-26T05:30:08.393Z,94683.25
2022-09-26T05:32:36.362Z,94692.63
2022-09-26T05:35:05.660Z,94691.53
2022-09-26T05:37:37.971Z,94686.78
2022-09-26T05:40:24.479Z,94687.88
2022-09-26T05:43:01.189Z,94685.81
2022-09-26T05:45:31.273Z,94689.47
2022-09-26T05:48:01.176Z,94691.47
2022-09-26T05:50:29.145Z,94689.94
2022-09-26T05:52:58.555Z,94694.75
2022-09-26T05:55:27.332Z,94688.00
2022-09-26T05:58:06.316Z,94693.38
2022-09-26T06:00:54.509Z,94697.63
2022-09-26T06:03:23.038Z,94690.31
2022-09-26T06:06:08.795Z,94679.34
2022-09-26T06:08:38.998Z,94682.03
2022-09-26T06:11:22.622Z,94676.31
2022-09-26T06:13:53.001Z,94676.81
2022-09-26T06:16:22.343Z,94675.88
2022-09-26T06:18:52.571Z,94686.06
2022-09-26T06:21:21.339Z,94675.59
2022-09-26T06:23:53.261Z,94664.31
2022-09-26T06:26:24.118Z,94670.34
2022-09-26T06:28:59.791Z,94666.44
2022-09-26T06:31:30.494Z,94664.63
2022-09-26T06:34:12.930Z,94665.59
2022-09-26T06:37:16.212Z,94672.91
2022-09-26T06:39:44.218Z,94671.63
2022-09-26T06:42:12.969Z,94679.19
2022-09-26T06:45:16.733Z,94678.41
2022-09-26T06:48:03.451Z,94677.94
2022-09-26T06:50:36.415Z,94689.13
2022-09-26T06:53:07.486Z,94689.69
2022-09-26T06:55:40.930Z,94685.56
2022-09-26T06:58:09.182Z,94682.38
2022-09-26T07:00:52.421Z,94688.84
2022-09-26T07:03:45.336Z,94681.63
2022-09-26T07:06:36.627Z,94681.81
2022-09-26T07:09:09.897Z,94675.63
2022-09-26T07:12:13.574Z,94669.41
2022-09-26T07:14:38.271Z,94669.50
2022-09-26T07:17:20.658Z,94666.44
2022-09-26T07:20:12.536Z,94662.28
2022-09-26T07:23:04.448Z,94655.56
2022-09-26T07:25:33.516Z,94663.47
2022-09-26T07:28:03.273Z,94660.88
2022-09-26T07:30:58.191Z,94671.47
2022-09-26T07:33:35.296Z,94673.41
2022-09-26T07:36:08.595Z,94663.47
2022-09-26T07:38:36.672Z,94671.59
2022-09-26T07:41:07.391Z,94673.66
2022-09-26T07:44:21.753Z,94672.66
2022-09-26T07:46:42.397Z,94674.34
2022-09-26T07:49:30.117Z,94667.59
2022-09-26T07:52:15.144Z,94676.88
2022-09-26T07:54:51.339Z,94671.84
2022-09-26T07:57:38.958Z,94672.38
2022-09-26T08:00:21.486Z,94664.53
2022-09-26T08:03:09.864Z,94670.22
2022-09-26T08:05:40.621Z,94659.81
2022-09-26T08:08:08.738Z,94658.38
2022-09-26T08:11:01.548Z,94665.84
2022-09-26T08:13:34.635Z,94667.44
2022-09-26T08:16:23.134Z,94656.47
2022-09-26T08:18:55.284Z,94659.09
2022-09-26T08:21:26.729Z,94673.97
2022-09-26T08:23:57.916Z,94678.69
2022-09-26T08:26:48.390Z,94672.66
2022-09-26T08:29:23.582Z,94671.00
2022-09-26T08:31:54.792Z,94676.25
2022-09-26T08:34:25.711Z,94670.41
2022-09-26T08:37:14.527Z,94672.88
2022-09-26T08:40:01.227Z,94675.63
2022-09-26T08:43:04.336Z,94667.22
2022-09-26T08:46:41.543Z,94667.34
2022-09-26T08:49:49.008Z,94660.19
2022-09-26T08:52:34.318Z,94655.00
2022-09-26T08:55:07.269Z,94654.97
2022-09-26T08:57:41.124Z,94647.56
2022-09-26T09:00:20.236Z,94647.06
2022-09-26T09:03:15.702Z,94641.38
2022-09-26T09:05:49.823Z,94647.28
2022-09-26T09:08:23.958Z,94633.63
2022-09-26T09:11:19.376Z,94634.66
2022-09-26T09:14:06.540Z,94636.22
2022-09-26T09:17:05.040Z,94629.38
2022-09-26T09:20:16.136Z,94639.38
2022-09-26T09:23:24.579Z,94647.00
2022-09-26T09:29:22.886Z,94642.56
2022-09-26T09:32:22.670Z,94644.13
2022-09-26T09:35:03.594Z,94630.81
2022-09-26T09:37:54.916Z,94629.25
2022-09-26T09:40:45.547Z,94623.78
2022-09-26T09:43:18.227Z,94628.47
2022-09-26T09:45:49.926Z,94624.84
2022-09-26T09:48:18.834Z,94625.91
2022-09-26T09:50:56.467Z,94631.66
2022-09-26T09:53:48.208Z,94632.78
2022-09-26T09:56:28.784Z,94627.44
2022-09-26T09:59:11.545Z,94628.16
2022-09-26T10:02:19.486Z,94626.75
2022-09-26T10:04:56.522Z,94625.06
2022-09-26T10:07:25.040Z,94627.66
2022-09-26T10:10:19.947Z,94634.63
2022-09-26T10:13:22.531Z,94634.66
2022-09-26T10:16:18.162Z,94629.50
2022-09-26T10:19:03.577Z,94625.34
2022-09-26T10:21:35.190Z,94627.56
2022-09-26T10:24:05.096Z,94619.19
2022-09-26T10:26:49.479Z,94628.28
2022-09-26T10:29:35.203Z,94619.03
2022-09-26T10:32:04.648Z,94624.31
2022-09-26T10:34:35.232Z,94622.31
2022-09-26T10:37:22.493Z,94612.84
2022-09-26T10:40:12.853Z,94615.66
2022-09-26T10:42:43.210Z,94609.84
2022-09-26T10:45:17.576Z,94604.25
2022-09-26T10:48:13.671Z,94599.09
2022-09-26T10:51:02.075Z,94596.66
2022-09-26T10:53:37.530Z,94589.88
2022-09-26T10:56:12.572Z,94586.25
2022-09-26T10:58:43.564Z,94591.44
2022-09-26T11:01:25.691Z,94586.19
2022-09-26T11:03:56.327Z,94582.00
2022-09-26T11:06:26.728Z,94583.13
2022-09-26T11:09:03.364Z,94583.19
2022-09-26T11:11:52.445Z,94580.56
2022-09-26T11:14:29.166Z,94570.06
2022-09-26T11:17:13.469Z,94572.44
2022-09-26T11:19:54.528Z,94571.13
2022-09-26T11:22:33.807Z,94569.56
2022-09-26T11:25:08.007Z,94561.16
2022-09-26T11:27:44.005Z,94566.41
2022-09-26T11:30:20.766Z,94558.00
2022-09-26T11:33:13.480Z,94549.03
2022-09-26T11:36:45.293Z,94556.44
2022-09-26T11:39:28.128Z,94547.47
2022-09-26T11:42:13.795Z,94551.66
2022-09-26T11:44:59.625Z,94547.38
2022-09-26T11:48:10.994Z,94544.75
2022-09-26T11:51:09.413Z,94543.72
2022-09-26T11:54:00.958Z,94538.94
2022-09-26T11:56:53.159Z,94530.47
2022-09-26T11:59:39.310Z,94524.63
2022-09-26T12:02:24.319Z,94515.09
2022-09-26T12:05:27.267Z,94525.41
2022-09-26T12:08:06.847Z,94522.88
2022-09-26T12:10:47.951Z,94507.91
2022-09-26T12:13:35.077Z,94511.06
2022-09-26T12:16:12.326Z,94502.66
2022-09-26T12:18:48.852Z,94503.88
2022-09-26T12:21:27.394Z,94489.31
2022-09-26T12:24:00.733Z,94489.25
2022-09-26T12:26:38.120Z,94486.09
2022-09-26T12:29:19.851Z,94481.94
2022-09-26T12:32:02.845Z,94477.81
2022-09-26T12:34:50.658Z,94478.06
2022-09-26T12:37:41.064Z,94485.22
2022-09-26T12:40:24.640Z,94490.09
2022-09-26T12:43:19.913Z,94480.38
2022-09-26T12:46:07.571Z,94477.22
2022-09-26T12:48:49.824Z,94475.88
2022-09-26T12:51:28.804Z,94469.53
2022-09-26T12:54:21.594Z,94473.19
2022-09-26T12:56:54.756Z,94462.59
2022-09-26T12:59:46.786Z,94463.09
2022-09-26T13:02:44.185Z,94463.38
2022-09-26T13:05:44.311Z,94460.88
2022-09-26T13:08:21.642Z,94469.03
2022-09-26T13:11:07.108Z,94466.91
2022-09-26T13:14:09.097Z,94461.00
2022-09-26T13:16:50.996Z,94462.59
2022-09-26T13:19:27.779Z,94462.09
2022-09-26T13:21:59.454Z,94457.31
2022-09-26T13:24:35.794Z,94447.31
2022-09-26T13:27:14.768Z,94452.94
2022-09-26T13:29:47.832Z,94455.16
2022-09-26T13:32:22.807Z,94451.59
2022-09-26T13:34:57.109Z,94449.25
2022-09-26T13:37:38.361Z,94435.31
2022-09-26T13:40:21.179Z,94445.19
2022-09-26T13:43:03.067Z,94433.75
2022-09-26T13:45:46.536Z,94436.97
2022-09-26T13:48:20.846Z,94432.31
2022-09-26T13:50:55.894Z,94435.56
2022-09-26T13:53:32.410Z,94434.03
2022-09-26T13:56:42.820Z,94435.72
2022-09-26T13:59:54.271Z,94429.50
2022-09-26T14:02:29.245Z,94425.28
2022-09-26T14:05:29.571Z,94420.59
2022-09-26T14:08:15.244Z,94416.84
2022-09-26T14:10:53.254Z,94406.81
2022-09-26T14:13:34.645Z,94419.88
2022-09-26T14:16:06.221Z,94416.16
2022-09-26T14:18:55.220Z,94416.09
2022-09-26T14:21:39.872Z,94413.75
2022-09-26T14:24:38.575Z,94408.81
2022-09-26T14:27:27.273Z,94411.44
2022-09-26T14:30:01.287Z,94409.88
2022-09-26T14:32:38.192Z,94409.59
2022-09-26T14:35:18.788Z,94398.81
2022-09-26T14:37:50.191Z,94402.00
2022-09-26T14:40:35.050Z,94396.75
2022-09-26T14:43:14.033Z,94398.34
2022-09-26T14:45:51.202Z,94388.94
2022-09-26T14:48:33.345Z,94394.16
2022-09-26T14:51:05.615Z,94388.34
2022-09-26T14:53:40.609Z,94381.78
2022-09-26T14:56:11.680Z,94385.69
2022-09-26T14:58:50.130Z,94393.09
2022-09-26T15:01:26.305Z,94391.56
2022-09-26T15:03:59.167Z,94403.19
2022-09-26T15:06:30.182Z,94390.56
2022-09-26T15:08:59.741Z,94395.28
2022-09-26T15:11:34.776Z,94402.16
2022-09-26T15:14:14.952Z,94399.53
2022-09-26T15:16:48.379Z,94387.97
2022-09-26T15:19:22.116Z,94402.75
2022-09-26T15:21:55.706Z,94396.44
2022-09-26T15:24:26.461Z,94400.63
2022-09-26T15:26:57.002Z,94396.38
2022-09-26T15:29:25.455Z,94402.75
2022-09-26T15:31:55.926Z,94395.88
2022-09-26T15:34:36.701Z,94393.25
2022-09-26T15:37:15.647Z,94400.06
2022-09-26T15:39:44.149Z,94394.81
2022-09-26T15:42:42.234Z,94392.69
2022-09-26T15:45:33.450Z,94386.41
2022-09-26T15:48:04.284Z,94386.47
2022-09-26T15:50:49.435Z,94384.91
2022-09-26T15:53:24.346Z,94381.47
2022-09-26T15:55:56.820Z,94378.09
2022-09-26T15:58:32.922Z,94381.78
2022-09-26T16:01:01.576Z,94377.03
2022-09-26T16:03:40.647Z,94380.72
2022-09-26T16:06:29.138Z,94377.63
2022-09-26T16:09:04.988Z,94373.97
2022-09-26T16:11:34.478Z,94378.69
2022-09-26T16:14:02.759Z,94376.56
2022-09-26T16:16:33.372Z,94383.41
2022-09-26T16:19:04.525Z,94381.84
2022-09-26T16:21:37.668Z,94368.75
2022-09-26T16:24:29.978Z,94374.53
2022-09-26T16:26:58.114Z,94380.81
2022-09-26T16:29:34.827Z,94380.28
2022-09-26T16:32:04.149Z,94381.59
2022-09-26T16:34:32.373Z,94381.34
2022-09-26T16:37:01.753Z,94388.69
2022-09-26T16:39:32.522Z,94390.81
2022-09-26T16:42:03.457Z,94386.06
2022-09-26T16:44:35.905Z,94386.59
2022-09-26T16:47:06.237Z,94386.06
2022-09-26T16:49:46.141Z,94385.03
2022-09-26T16:52:35.672Z,94395.03
2022-09-26T16:55:07.078Z,94392.94
2022-09-26T16:57:38.321Z,94388.72
2022-09-26T17:00:33.145Z,94391.88
2022-09-26T17:03:01.192Z,94391.34
2022-09-26T17:05:29.332Z,94389.25
2022-09-26T17:07:58.762Z,94392.94
2022-09-26T17:10:27.316Z,94388.22
2022-09-26T17:12:56.384Z,94389.28
2022-09-26T17:15:30.900Z,94397.66
2022-09-26T17:18:01.357Z,94393.75
2022-09-26T17:20:29.979Z,94391.38
2022-09-26T17:23:07.991Z,94396.63
2022-09-26T17:25:52.024Z,94395.06
2022-09-26T17:28:30.404Z,94397.16
2022-09-26T17:31:06.202Z,94395.06
2022-09-26T17:33:37.900Z,94390.34
2022-09-26T17:36:10.747Z,94386.44
2022-09-26T17:38:41.313Z,94393.00
2022-09-26T17:41:12.535Z,94390.38
2022-09-26T17:43:40.733Z,94382.50
2022-09-26T17:46:16.363Z,94382.50
2022-09-26T17:48:45.937Z,94379.88
2022-09-26T17:51:14.983Z,94370.94
2022-09-26T17:53:50.882Z,94379.34
2022-09-26T17:56:20.023Z,94377.78
2022-09-26T17:58:51.331Z,94373.56
2022-09-26T18:01:23.341Z,94377.25
2022-09-26T18:03:54.545Z,94359.94
2022-09-26T18:06:26.042Z,94356.78
2022-09-26T18:08:59.719Z,94352.06
2022-09-26T18:11:28.252Z,94358.34
2022-09-26T18:13:56.950Z,94345.22
2022-09-26T18:16:25.430Z,94347.31
2022-09-26T18:18:53.418Z,94347.84
2022-09-26T18:21:24.352Z,94359.13
2022-09-26T18:23:58.052Z,94365.19
2022-09-26T18:29:02.422Z,94373.59
2022-09-26T18:31:32.978Z,94362.03
2022-09-26T18:34:03.132Z,94362.03
2022-09-26T18:36:33.899Z,94365.19
2022-09-26T18:39:03.366Z,94370.44
2022-09-26T18:41:31.522Z,94363.09
2022-09-26T18:44:03.013Z,94360.47
2022-09-26T18:46:31.619Z,94358.34
2022-09-26T18:49:06.268Z,94362.56
2022-09-26T18:51:34.976Z,94360.44
2022-09-26T18:54:10.731Z,94359.13
2022-09-26T18:56:56.915Z,94357.31
2022-09-26T18:59:28.916Z,94358.88
2022-09-26T19:01:58.366Z,94361.25
2022-09-26T19:04:27.267Z,94365.72
2022-09-26T19:07:00.883Z,94366.25
2022-09-26T19:09:34.367Z,94366.78
2022-09-26T19:12:03.143Z,94374.13
2022-09-26T19:14:32.312Z,94377.25
2022-09-26T19:17:00.591Z,94389.84
2022-09-26T19:19:30.314Z,94381.44
2022-09-26T19:22:00.526Z,94391.16
2022-09-26T19:24:35.402Z,94390.63
2022-09-26T19:27:07.447Z,94393.50
2022-09-26T19:29:39.861Z,94393.41
2022-09-26T19:32:13.220Z,94399.72
2022-09-26T19:34:41.377Z,94398.41
2022-09-26T19:37:10.583Z,94404.44
2022-09-26T19:39:40.102Z,94412.34
2022-09-26T19:42:08.167Z,94411.81
2022-09-26T19:44:36.207Z,94401.88
2022-09-26T19:47:04.822Z,94398.19
2022-09-26T19:49:33.313Z,94390.84
2022-09-26T19:52:02.531Z,94389.28
2022-09-26T19:54:30.635Z,94376.69
2022-09-26T19:57:00.200Z,94370.91
2022-09-26T19:59:28.203Z,94373.53
2022-09-26T20:01:56.400Z,94372.22
2022-09-26T20:04:24.521Z,94362.00
2022-09-26T20:06:52.511Z,94347.56
2022-09-26T20:09:21.395Z,94350.19
2022-09-26T20:11:49.599Z,94339.44
2022-09-26T20:14:24.901Z,94331.03
2022-09-26T20:16:55.359Z,94326.31
2022-09-26T20:19:29.456Z,94325.28
2022-09-26T20:22:01.886Z,94317.91
2022-09-26T20:24:31.984Z,94328.91
2022-09-26T20:27:02.971Z,94326.81
2022-09-26T20:29:52.472Z,94323.16
2022-09-26T20:32:19.502Z,94315.53
2022-09-26T20:34:48.323Z,94311.59
2022-09-26T20:37:16.602Z,94300.06
2022-09-26T20:39:46.943Z,94296.91
2022-09-26T20:42:18.715Z,94288.53
2022-09-26T20:44:50.828Z,94276.47
2022-09-26T20:47:21.255Z,94275.41
2022-09-26T20:49:53.915Z,94268.84
2022-09-26T20:52:24.391Z,94260.72
2022-09-26T20:54:53.261Z,94262.28
2022-09-26T20:57:22.281Z,94269.09
2022-09-26T20:59:52.696Z,94260.72
2022-09-26T21:02:29.908Z,94253.91
2022-09-26T21:05:00.262Z,94247.34
2022-09-26T21:07:29.991Z,94253.38
2022-09-26T21:09:57.938Z,94256.53
2022-09-26T21:12:26.130Z,94260.19
2022-09-26T21:14:55.479Z,94267.53
2022-09-26T21:17:28.129Z,94269.63
2022-09-26T21:19:56.686Z,94275.38
2022-09-26T21:22:47.753Z,94280.09
2022-09-26T21:25:18.212Z,94283.78
2022-09-26T21:27:46.705Z,94276.97
2022-09-26T21:30:17.414Z,94283.25
2022-09-26T21:32:49.415Z,94283.25
2022-09-26T21:35:19.551Z,94280.38
2022-09-26T21:37:51.588Z,94280.63
2022-09-26T21:40:22.616Z,94280.09
2022-09-26T21:42:54.375Z,94279.06
2022-09-26T21:45:27.677Z,94284.81
2022-09-26T21:47:56.336Z,94285.88
2022-09-26T21:50:26.995Z,94287.44
2022-09-26T21:53:01.036Z,94290.59
2022-09-26T21:55:35.223Z,94299.47
2022-09-26T21:58:08.755Z,94307.84
2022-09-26T22:00:38.108Z,94301.03
2022-09-26T22:03:06.747Z,94296.84
2022-09-26T22:05:34.744Z,94292.38
2022-09-26T22:08:03.011Z,94272.47
2022-09-26T22:10:31.332Z,94266.44
2022-09-26T22:12:59.569Z,94265.91
2022-09-26T22:15:27.543Z,94279.53
2022-09-26T22:17:57.911Z,94277.19
2022-09-26T22:20:26.471Z,94271.16
2022-09-26T22:22:54.455Z,94273.22
2022-09-26T22:25:22.466Z,94272.16
2022-09-26T22:27:50.447Z,94273.44
2022-09-26T22:30:18.518Z,94272.91
2022-09-26T22:32:46.535Z,94275.25
2022-09-26T22:35:15.995Z,94271.06
2022-09-26T22:37:44.204Z,94276.81
2022-09-26T22:40:12.268Z,94270.47
2022-09-26T22:42:40.374Z,94271.53
2022-09-26T22:45:09.375Z,94255.81
2022-09-26T22:47:37.346Z,94265.22
2022-09-26T22:50:06.058Z,94257.88
2022-09-26T22:52:35.674Z,94256.53
2022-09-26T22:55:03.633Z,94241.31
2022-09-26T22:57:32.940Z,94225.88
2022-09-26T23:00:01.901Z,94242.63
2022-09-26T23:02:29.929Z,94229.81
2022-09-26T23:04:57.909Z,94231.69
2022-09-26T23:07:25.927Z,94227.00
2022-09-26T23:09:55.229Z,94227.00
2022-09-26T23:12:23.220Z,94216.00
2022-09-26T23:14:51.198Z,94217.56
2022-09-26T23:17:19.150Z,94220.19
2022-09-26T23:19:47.120Z,94227.53
2022-09-26T23:22:15.412Z,94231.72
2022-09-26T23:24:43.403Z,94226.19
2022-09-26T23:27:12.753Z,94221.50
2022-09-26T23:29:41.369Z,94223.03
2022-09-26T23:32:09.335Z,94220.66
2022-09-26T23:34:37.320Z,94214.63
2022-09-26T23:37:05.301Z,94218.53
2022-09-26T23:39:33.261Z,94222.44
2022-09-26T23:42:01.290Z,94224.28
2022-09-26T23:44:32.643Z,94225.06
2022-09-26T23:47:02.642Z,94224.28
2022-09-26T23:49:30.658Z,94209.53
2022-09-26T23:51:58.682Z,94217.31
2022-09-26T23:54:26.692Z,94223.56
2022-09-26T23:56:54.696Z,94215.22
2022-09-26T23:59:22.646Z,94204.19
